メインページ
METAR-TAF:

METAR-TAF

空港 :

ティミンズ, オンタリオ州, カナダ

緯度: 48-34N, 経度: 081-22W, 海抜: 295m

現時点の気象観測

当レポートは57分前の08:00(UTC)に作成
北西の風 13kt、最大20ktの突風を伴う
気温 -16°C
湿度 92%
気圧 1002 hPa
視程: 9.7km
高度7000ftの曇り
小雪

METAR: CYTS 150800Z 31013G20KT 6SM -SN OVC070 M16/M17 A2958 RMK AC8 SLP047

時間: 03:57 (08:57 UTC)

予報

当レポートは1時間19分前の07:38(UTC)に作成
予報は15日の 08時(UTC)から 15日の 20時(UTC)まで有効
北西の風 10kt、最大20ktの突風を伴う
視程: 9.7km
高度3000ftの曇り
小雪
15日の 08時(UTC)から 15日の 20時(UTC)まで一時的に
視程: 4.8km
高度2000ftの曇り
小雪
15日の 16時(UTC)から 15日の 18時(UTC)まで徐々に
西の風 10kt、最大20ktの突風を伴う

TAF: CYTS 150738Z 1508/1520 32010G20KT 6SM -SN OVC030 TEMPO 1508/1520 3SM -SN OVC020 BECMG 1516/1518 28010G20KT RMK NXT FCST BY 151400Z

4,000以上の空港の気象観測と天気予報(METAR報とTAF報)

利用可能な観測所は地図上に黄色い丸と赤い丸で示す。

丸の上にカーソルを重ねると観測所名を参照できる。

次にクリックすると気象観測と天気予報を参照できる。

マップの切り替え:黒色「×」印の緑ボタンをクリックして拡大、「-」印の緑ボタンをクリックして縮小、緑色の三角印をクリックして隣りの地図に切り替え


METAR-TAF: